sensor_id;sensor_type;location;lat;lon;timestamp;P1;durP1;ratioP1;P2;durP2;ratioP2
16304;SDS011;8261;47.678;-122.174;2023-05-21T00:00:18;3.53;;;1.10;;
16304;SDS011;8261;47.678;-122.174;2023-05-21T00:02:49;2.00;;;1.17;;
16304;SDS011;8261;47.678;-122.174;2023-05-21T00:05:21;4.93;;;1.27;;
16304;SDS011;8261;47.678;-122.174;2023-05-21T00:07:52;2.10;;;1.33;;
16304;SDS011;8261;47.678;-122.174;2023-05-21T00:10:23;2.43;;;1.00;;
16304;SDS011;8261;47.678;-122.174;2023-05-21T00:12:56;1.60;;;1.07;;
16304;SDS011;8261;47.678;-122.174;2023-05-21T00:15:27;3.17;;;1.10;;
16304;SDS011;8261;47.678;-122.174;2023-05-21T00:17:58;3.23;;;1.33;;
16304;SDS011;8261;47.678;-122.174;2023-05-21T00:20:31;1.33;;;1.00;;
16304;SDS011;8261;47.678;-122.174;2023-05-21T00:23:03;2.53;;;1.40;;
16304;SDS011;8261;47.678;-122.174;2023-05-21T00:25:33;3.87;;;1.53;;
16304;SDS011;8261;47.678;-122.174;2023-05-21T00:28:04;2.43;;;1.30;;
16304;SDS011;8261;47.678;-122.174;2023-05-21T00:30:35;2.83;;;1.10;;
16304;SDS011;8261;47.678;-122.174;2023-05-21T00:33:06;2.20;;;1.13;;
16304;SDS011;8261;47.678;-122.174;2023-05-21T00:35:42;3.40;;;1.40;;
16304;SDS011;8261;47.678;-122.174;2023-05-21T00:38:13;2.40;;;1.20;;
16304;SDS011;8261;47.678;-122.174;2023-05-21T00:40:44;1.80;;;1.20;;
16304;SDS011;8261;47.678;-122.174;2023-05-21T00:43:15;1.33;;;1.10;;
16304;SDS011;8261;47.678;-122.174;2023-05-21T00:45:46;1.90;;;1.23;;
16304;SDS011;8261;47.678;-122.174;2023-05-21T00:48:17;2.13;;;1.10;;
16304;SDS011;8261;47.678;-122.174;2023-05-21T00:50:50;1.87;;;1.20;;
16304;SDS011;8261;47.678;-122.174;2023-05-21T00:53:21;3.43;;;1.10;;
16304;SDS011;8261;47.678;-122.174;2023-05-21T00:55:52;1.57;;;1.00;;
16304;SDS011;8261;47.678;-122.174;2023-05-21T00:58:23;3.13;;;1.20;;
16304;SDS011;8261;47.678;-122.174;2023-05-21T01:00:54;2.43;;;0.90;;
16304;SDS011;8261;47.678;-122.174;2023-05-21T01:03:25;2.30;;;1.10;;
16304;SDS011;8261;47.678;-122.174;2023-05-21T01:05:57;2.40;;;0.83;;
16304;SDS011;8261;47.678;-122.174;2023-05-21T01:08:29;1.20;;;0.90;;
16304;SDS011;8261;47.678;-122.174;2023-05-21T01:11:02;3.40;;;0.73;;
16304;SDS011;8261;47.678;-122.174;2023-05-21T01:13:34;1.10;;;0.80;;
16304;SDS011;8261;47.678;-122.174;2023-05-21T01:16:07;1.80;;;0.80;;
16304;SDS011;8261;47.678;-122.174;2023-05-21T01:18:40;2.50;;;0.80;;
16304;SDS011;8261;47.678;-122.174;2023-05-21T01:21:15;3.23;;;0.70;;
16304;SDS011;8261;47.678;-122.174;2023-05-21T01:23:49;0.90;;;0.80;;
16304;SDS011;8261;47.678;-122.174;2023-05-21T01:26:20;3.23;;;0.90;;
16304;SDS011;8261;47.678;-122.174;2023-05-21T01:28:52;1.43;;;0.77;;
16304;SDS011;8261;47.678;-122.174;2023-05-21T01:31:25;2.70;;;0.90;;
16304;SDS011;8261;47.678;-122.174;2023-05-21T01:33:59;3.27;;;1.10;;
16304;SDS011;8261;47.678;-122.174;2023-05-21T01:36:35;1.77;;;0.90;;
16304;SDS011;8261;47.678;-122.174;2023-05-21T01:39:14;2.13;;;0.87;;
16304;SDS011;8261;47.678;-122.174;2023-05-21T01:41:49;0.90;;;0.60;;
16304;SDS011;8261;47.678;-122.174;2023-05-21T01:44:23;2.00;;;0.80;;
16304;SDS011;8261;47.678;-122.174;2023-05-21T01:46:55;1.73;;;0.60;;
16304;SDS011;8261;47.678;-122.174;2023-05-21T01:49:27;2.60;;;0.80;;
16304;SDS011;8261;47.678;-122.174;2023-05-21T01:51:58;1.50;;;0.87;;
16304;SDS011;8261;47.678;-122.174;2023-05-21T01:54:31;2.33;;;0.70;;
16304;SDS011;8261;47.678;-122.174;2023-05-21T01:57:02;1.30;;;0.80;;
16304;SDS011;8261;47.678;-122.174;2023-05-21T01:59:33;1.33;;;1.10;;
16304;SDS011;8261;47.678;-122.174;2023-05-21T02:02:05;1.40;;;0.80;;
16304;SDS011;8261;47.678;-122.174;2023-05-21T02:04:36;2.03;;;1.00;;
16304;SDS011;8261;47.678;-122.174;2023-05-21T02:07:08;1.43;;;0.70;;
16304;SDS011;8261;47.678;-122.174;2023-05-21T02:09:42;1.07;;;0.70;;
16304;SDS011;8261;47.678;-122.174;2023-05-21T02:12:13;2.60;;;0.70;;
16304;SDS011;8261;47.678;-122.174;2023-05-21T02:14:44;2.97;;;1.00;;
16304;SDS011;8261;47.678;-122.174;2023-05-21T02:17:17;1.47;;;0.80;;
16304;SDS011;8261;47.678;-122.174;2023-05-21T02:19:48;1.93;;;0.73;;
16304;SDS011;8261;47.678;-122.174;2023-05-21T02:22:19;2.77;;;0.87;;
16304;SDS011;8261;47.678;-122.174;2023-05-21T02:24:51;0.80;;;0.50;;
16304;SDS011;8261;47.678;-122.174;2023-05-21T02:27:22;0.70;;;0.63;;
16304;SDS011;8261;47.678;-122.174;2023-05-21T02:29:53;1.03;;;0.70;;
16304;SDS011;8261;47.678;-122.174;2023-05-21T02:32:24;1.33;;;0.70;;
16304;SDS011;8261;47.678;-122.174;2023-05-21T02:34:55;2.00;;;0.60;;
16304;SDS011;8261;47.678;-122.174;2023-05-21T02:37:26;2.87;;;0.90;;
16304;SDS011;8261;47.678;-122.174;2023-05-21T02:40:02;3.83;;;1.10;;
16304;SDS011;8261;47.678;-122.174;2023-05-21T02:42:37;1.93;;;0.70;;
16304;SDS011;8261;47.678;-122.174;2023-05-21T02:45:11;1.10;;;0.63;;
16304;SDS011;8261;47.678;-122.174;2023-05-21T02:47:42;1.50;;;0.90;;
16304;SDS011;8261;47.678;-122.174;2023-05-21T02:50:14;1.13;;;1.00;;
16304;SDS011;8261;47.678;-122.174;2023-05-21T02:52:45;1.77;;;1.00;;
16304;SDS011;8261;47.678;-122.174;2023-05-21T02:55:19;5.10;;;0.90;;
16304;SDS011;8261;47.678;-122.174;2023-05-21T02:57:51;1.93;;;0.83;;
16304;SDS011;8261;47.678;-122.174;2023-05-21T03:00:22;1.70;;;0.77;;
16304;SDS011;8261;47.678;-122.174;2023-05-21T03:02:54;2.20;;;1.03;;
16304;SDS011;8261;47.678;-122.174;2023-05-21T03:05:25;7.40;;;1.00;;
16304;SDS011;8261;47.678;-122.174;2023-05-21T03:07:58;3.03;;;0.83;;
16304;SDS011;8261;47.678;-122.174;2023-05-21T03:10:43;2.07;;;1.03;;
16304;SDS011;8261;47.678;-122.174;2023-05-21T03:13:17;2.20;;;1.03;;
16304;SDS011;8261;47.678;-122.174;2023-05-21T03:18:26;3.23;;;0.80;;
16304;SDS011;8261;47.678;-122.174;2023-05-21T03:23:35;1.33;;;0.80;;
16304;SDS011;8261;47.678;-122.174;2023-05-21T03:26:12;0.70;;;0.50;;
16304;SDS011;8261;47.678;-122.174;2023-05-21T03:28:47;2.93;;;0.70;;
16304;SDS011;8261;47.678;-122.174;2023-05-21T03:31:22;0.93;;;0.60;;
16304;SDS011;8261;47.678;-122.174;2023-05-21T03:33:56;2.17;;;0.80;;
16304;SDS011;8261;47.678;-122.174;2023-05-21T03:36:31;1.37;;;0.70;;
16304;SDS011;8261;47.678;-122.174;2023-05-21T03:39:25;1.23;;;0.70;;
16304;SDS011;8261;47.678;-122.174;2023-05-21T03:42:39;1.73;;;0.80;;
16304;SDS011;8261;47.678;-122.174;2023-05-21T03:45:11;1.50;;;0.60;;
16304;SDS011;8261;47.678;-122.174;2023-05-21T03:47:44;1.90;;;0.70;;
16304;SDS011;8261;47.678;-122.174;2023-05-21T03:50:18;1.20;;;0.97;;
16304;SDS011;8261;47.678;-122.174;2023-05-21T03:53:07;1.10;;;0.60;;
16304;SDS011;8261;47.678;-122.174;2023-05-21T03:55:40;2.27;;;0.77;;
16304;SDS011;8261;47.678;-122.174;2023-05-21T03:58:40;4.47;;;0.80;;
16304;SDS011;8261;47.678;-122.174;2023-05-21T04:01:37;1.77;;;1.00;;
16304;SDS011;8261;47.678;-122.174;2023-05-21T04:04:12;2.60;;;0.93;;
16304;SDS011;8261;47.678;-122.174;2023-05-21T04:06:45;3.03;;;1.00;;
16304;SDS011;8261;47.678;-122.174;2023-05-21T04:09:26;1.87;;;0.90;;
16304;SDS011;8261;47.678;-122.174;2023-05-21T04:15:00;2.27;;;0.70;;
16304;SDS011;8261;47.678;-122.174;2023-05-21T04:20:09;2.43;;;0.80;;
16304;SDS011;8261;47.678;-122.174;2023-05-21T04:22:44;1.37;;;0.97;;
16304;SDS011;8261;47.678;-122.174;2023-05-21T04:25:17;3.67;;;0.80;;
16304;SDS011;8261;47.678;-122.174;2023-05-21T04:27:50;1.23;;;0.80;;
16304;SDS011;8261;47.678;-122.174;2023-05-21T04:30:25;3.13;;;0.97;;
16304;SDS011;8261;47.678;-122.174;2023-05-21T04:32:58;1.07;;;0.70;;
16304;SDS011;8261;47.678;-122.174;2023-05-21T04:35:29;1.07;;;0.77;;
16304;SDS011;8261;47.678;-122.174;2023-05-21T04:38:02;1.53;;;0.90;;
16304;SDS011;8261;47.678;-122.174;2023-05-21T04:40:36;2.53;;;1.40;;
16304;SDS011;8261;47.678;-122.174;2023-05-21T04:56:36;4.30;;;1.10;;
16304;SDS011;8261;47.678;-122.174;2023-05-21T05:23:24;2.27;;;1.30;;
16304;SDS011;8261;47.678;-122.174;2023-05-21T05:26:00;3.57;;;1.47;;
16304;SDS011;8261;47.678;-122.174;2023-05-21T21:28:05;4.63;;;1.13;;
16304;SDS011;8261;47.678;-122.174;2023-05-21T21:30:37;1.70;;;1.00;;
16304;SDS011;8261;47.678;-122.174;2023-05-21T21:33:11;2.33;;;0.90;;
16304;SDS011;8261;47.678;-122.174;2023-05-21T21:35:45;1.23;;;0.90;;
16304;SDS011;8261;47.678;-122.174;2023-05-21T21:38:17;1.27;;;1.17;;
16304;SDS011;8261;47.678;-122.174;2023-05-21T21:40:50;2.13;;;1.20;;
16304;SDS011;8261;47.678;-122.174;2023-05-21T21:43:21;1.80;;;0.93;;
16304;SDS011;8261;47.678;-122.174;2023-05-21T21:45:52;1.60;;;1.20;;
16304;SDS011;8261;47.678;-122.174;2023-05-21T21:48:24;1.67;;;0.80;;
16304;SDS011;8261;47.678;-122.174;2023-05-21T21:50:55;2.20;;;0.87;;
16304;SDS011;8261;47.678;-122.174;2023-05-21T21:53:27;2.47;;;1.00;;
16304;SDS011;8261;47.678;-122.174;2023-05-21T21:55:59;1.67;;;1.00;;
16304;SDS011;8261;47.678;-122.174;2023-05-21T21:58:30;3.03;;;1.10;;
16304;SDS011;8261;47.678;-122.174;2023-05-21T22:01:01;4.10;;;1.30;;
16304;SDS011;8261;47.678;-122.174;2023-05-21T22:03:32;1.97;;;1.20;;
16304;SDS011;8261;47.678;-122.174;2023-05-21T22:06:03;2.37;;;1.20;;
16304;SDS011;8261;47.678;-122.174;2023-05-21T22:08:36;3.60;;;1.20;;
16304;SDS011;8261;47.678;-122.174;2023-05-21T22:11:09;0.90;;;0.90;;
16304;SDS011;8261;47.678;-122.174;2023-05-21T22:13:41;2.17;;;1.23;;
16304;SDS011;8261;47.678;-122.174;2023-05-21T22:16:12;1.83;;;1.27;;
16304;SDS011;8261;47.678;-122.174;2023-05-21T22:18:44;1.20;;;1.03;;
16304;SDS011;8261;47.678;-122.174;2023-05-21T22:21:16;3.70;;;1.27;;
16304;SDS011;8261;47.678;-122.174;2023-05-21T22:23:53;2.70;;;1.20;;
16304;SDS011;8261;47.678;-122.174;2023-05-21T22:26:27;2.23;;;1.50;;
16304;SDS011;8261;47.678;-122.174;2023-05-21T22:29:01;2.70;;;1.20;;
16304;SDS011;8261;47.678;-122.174;2023-05-21T22:31:32;1.10;;;1.00;;
16304;SDS011;8261;47.678;-122.174;2023-05-21T22:34:03;1.60;;;1.13;;
16304;SDS011;8261;47.678;-122.174;2023-05-21T22:36:34;1.57;;;0.90;;
16304;SDS011;8261;47.678;-122.174;2023-05-21T22:39:07;2.10;;;1.17;;
16304;SDS011;8261;47.678;-122.174;2023-05-21T22:41:39;1.87;;;1.13;;
16304;SDS011;8261;47.678;-122.174;2023-05-21T22:44:11;1.70;;;1.17;;
16304;SDS011;8261;47.678;-122.174;2023-05-21T22:46:42;4.63;;;1.40;;
16304;SDS011;8261;47.678;-122.174;2023-05-21T22:49:14;1.80;;;1.20;;
16304;SDS011;8261;47.678;-122.174;2023-05-21T22:51:46;2.80;;;1.00;;
16304;SDS011;8261;47.678;-122.174;2023-05-21T22:54:19;1.47;;;1.03;;
16304;SDS011;8261;47.678;-122.174;2023-05-21T22:56:52;2.20;;;0.97;;
16304;SDS011;8261;47.678;-122.174;2023-05-21T22:59:24;2.43;;;1.10;;
16304;SDS011;8261;47.678;-122.174;2023-05-21T23:01:55;2.87;;;1.10;;
16304;SDS011;8261;47.678;-122.174;2023-05-21T23:04:29;2.73;;;1.43;;
16304;SDS011;8261;47.678;-122.174;2023-05-21T23:07:10;2.30;;;1.10;;
16304;SDS011;8261;47.678;-122.174;2023-05-21T23:09:42;3.83;;;1.10;;
16304;SDS011;8261;47.678;-122.174;2023-05-21T23:12:15;1.93;;;1.00;;
16304;SDS011;8261;47.678;-122.174;2023-05-21T23:14:46;2.13;;;0.90;;
16304;SDS011;8261;47.678;-122.174;2023-05-21T23:17:18;2.83;;;1.07;;
16304;SDS011;8261;47.678;-122.174;2023-05-21T23:19:50;2.23;;;0.80;;
16304;SDS011;8261;47.678;-122.174;2023-05-21T23:22:21;2.33;;;1.10;;
16304;SDS011;8261;47.678;-122.174;2023-05-21T23:25:05;3.37;;;0.90;;
16304;SDS011;8261;47.678;-122.174;2023-05-21T23:27:38;2.13;;;1.30;;
16304;SDS011;8261;47.678;-122.174;2023-05-21T23:30:10;2.10;;;1.10;;
16304;SDS011;8261;47.678;-122.174;2023-05-21T23:32:42;2.93;;;1.13;;
16304;SDS011;8261;47.678;-122.174;2023-05-21T23:35:22;2.57;;;1.00;;
16304;SDS011;8261;47.678;-122.174;2023-05-21T23:37:53;2.17;;;0.87;;
16304;SDS011;8261;47.678;-122.174;2023-05-21T23:40:24;2.67;;;1.00;;
16304;SDS011;8261;47.678;-122.174;2023-05-21T23:42:58;2.77;;;1.10;;
16304;SDS011;8261;47.678;-122.174;2023-05-21T23:45:29;1.67;;;1.13;;
16304;SDS011;8261;47.678;-122.174;2023-05-21T23:48:00;1.80;;;1.03;;
16304;SDS011;8261;47.678;-122.174;2023-05-21T23:50:31;2.33;;;0.90;;
16304;SDS011;8261;47.678;-122.174;2023-05-21T23:53:03;1.63;;;0.93;;
16304;SDS011;8261;47.678;-122.174;2023-05-21T23:55:35;2.00;;;1.10;;
16304;SDS011;8261;47.678;-122.174;2023-05-21T23:58:08;4.37;;;1.10;;
